sensor_id;sensor_type;location;lat;lon;timestamp;temperature;humidity
62339;DHT22;48368;53.406;6.214;2022-10-26T00:02:22;10.70;99.90
62339;DHT22;48368;53.406;6.214;2022-10-26T00:04:48;10.70;99.90
62339;DHT22;48368;53.406;6.214;2022-10-26T00:07:13;10.70;99.90
62339;DHT22;48368;53.406;6.214;2022-10-26T00:09:39;10.70;99.90
62339;DHT22;48368;53.406;6.214;2022-10-26T00:12:04;10.70;99.90
62339;DHT22;48368;53.406;6.214;2022-10-26T00:14:30;10.70;99.90
62339;DHT22;48368;53.406;6.214;2022-10-26T00:16:56;10.60;99.90
62339;DHT22;48368;53.406;6.214;2022-10-26T00:19:22;10.60;99.90
62339;DHT22;48368;53.406;6.214;2022-10-26T00:21:47;10.60;99.90
62339;DHT22;48368;53.406;6.214;2022-10-26T00:24:13;10.50;99.90
62339;DHT22;48368;53.406;6.214;2022-10-26T00:26:39;10.60;99.90
62339;DHT22;48368;53.406;6.214;2022-10-26T00:29:05;10.50;99.90
62339;DHT22;48368;53.406;6.214;2022-10-26T00:31:31;10.50;99.90
62339;DHT22;48368;53.406;6.214;2022-10-26T00:33:57;10.40;99.90
62339;DHT22;48368;53.406;6.214;2022-10-26T00:36:24;10.50;99.90
62339;DHT22;48368;53.406;6.214;2022-10-26T00:38:53;10.40;99.90
62339;DHT22;48368;53.406;6.214;2022-10-26T00:41:21;10.50;99.90
62339;DHT22;48368;53.406;6.214;2022-10-26T00:43:47;10.40;99.90
62339;DHT22;48368;53.406;6.214;2022-10-26T00:46:23;10.40;99.90
62339;DHT22;48368;53.406;6.214;2022-10-26T00:48:56;10.50;99.90
62339;DHT22;48368;53.406;6.214;2022-10-26T00:51:40;10.40;99.90
62339;DHT22;48368;53.406;6.214;2022-10-26T00:54:08;10.40;99.90
62339;DHT22;48368;53.406;6.214;2022-10-26T00:56:35;10.40;99.90
62339;DHT22;48368;53.406;6.214;2022-10-26T00:59:04;10.40;99.90
62339;DHT22;48368;53.406;6.214;2022-10-26T01:01:32;10.30;99.90
62339;DHT22;48368;53.406;6.214;2022-10-26T01:03:59;10.40;99.90
62339;DHT22;48368;53.406;6.214;2022-10-26T01:06:27;10.40;99.90
62339;DHT22;48368;53.406;6.214;2022-10-26T01:08:53;10.30;99.90
62339;DHT22;48368;53.406;6.214;2022-10-26T01:11:19;10.30;99.90
62339;DHT22;48368;53.406;6.214;2022-10-26T01:13:45;10.30;99.90
62339;DHT22;48368;53.406;6.214;2022-10-26T01:16:53;10.30;99.90
62339;DHT22;48368;53.406;6.214;2022-10-26T01:22:02;10.30;99.90
62339;DHT22;48368;53.406;6.214;2022-10-26T01:24:45;10.20;99.90
62339;DHT22;48368;53.406;6.214;2022-10-26T01:27:26;10.20;99.90
62339;DHT22;48368;53.406;6.214;2022-10-26T01:33:06;10.30;99.90
62339;DHT22;48368;53.406;6.214;2022-10-26T01:38:12;10.20;99.90
62339;DHT22;48368;53.406;6.214;2022-10-26T01:43:29;10.10;99.90
62339;DHT22;48368;53.406;6.214;2022-10-26T01:45:57;10.10;99.90
62339;DHT22;48368;53.406;6.214;2022-10-26T01:48:24;10.10;99.90
62339;DHT22;48368;53.406;6.214;2022-10-26T01:50:52;10.10;99.90
62339;DHT22;48368;53.406;6.214;2022-10-26T01:53:19;10.10;99.90
62339;DHT22;48368;53.406;6.214;2022-10-26T01:55:48;10.10;99.90
62339;DHT22;48368;53.406;6.214;2022-10-26T02:04:37;10.00;99.90
62339;DHT22;48368;53.406;6.214;2022-10-26T02:07:44;10.00;99.90
62339;DHT22;48368;53.406;6.214;2022-10-26T02:13:07;9.90;99.90
62339;DHT22;48368;53.406;6.214;2022-10-26T02:15:53;9.90;99.90
62339;DHT22;48368;53.406;6.214;2022-10-26T02:18:41;9.90;99.90
62339;DHT22;48368;53.406;6.214;2022-10-26T02:21:14;9.90;99.90
62339;DHT22;48368;53.406;6.214;2022-10-26T02:23:44;9.90;99.90
62339;DHT22;48368;53.406;6.214;2022-10-26T02:26:12;9.90;99.90
62339;DHT22;48368;53.406;6.214;2022-10-26T02:28:44;9.80;99.90
62339;DHT22;48368;53.406;6.214;2022-10-26T02:31:13;9.80;99.90
62339;DHT22;48368;53.406;6.214;2022-10-26T02:33:42;9.80;99.90
62339;DHT22;48368;53.406;6.214;2022-10-26T02:36:13;9.70;99.90
62339;DHT22;48368;53.406;6.214;2022-10-26T02:38:41;9.70;99.90
62339;DHT22;48368;53.406;6.214;2022-10-26T02:41:09;9.70;99.90
62339;DHT22;48368;53.406;6.214;2022-10-26T02:43:42;9.70;99.90
62339;DHT22;48368;53.406;6.214;2022-10-26T02:46:12;9.70;99.90
62339;DHT22;48368;53.406;6.214;2022-10-26T02:48:39;9.60;99.90
62339;DHT22;48368;53.406;6.214;2022-10-26T02:51:30;9.60;99.90
62339;DHT22;48368;53.406;6.214;2022-10-26T02:54:18;9.60;99.90
62339;DHT22;48368;53.406;6.214;2022-10-26T02:56:57;9.60;99.90
62339;DHT22;48368;53.406;6.214;2022-10-26T02:59:26;9.60;99.90
62339;DHT22;48368;53.406;6.214;2022-10-26T03:01:53;9.60;99.90
62339;DHT22;48368;53.406;6.214;2022-10-26T03:04:19;9.50;99.90
62339;DHT22;48368;53.406;6.214;2022-10-26T03:06:54;9.50;99.90
62339;DHT22;48368;53.406;6.214;2022-10-26T03:09:20;9.50;99.90
62339;DHT22;48368;53.406;6.214;2022-10-26T03:11:45;9.50;99.90
62339;DHT22;48368;53.406;6.214;2022-10-26T03:14:11;9.50;99.90
62339;DHT22;48368;53.406;6.214;2022-10-26T03:16:37;9.60;99.90
62339;DHT22;48368;53.406;6.214;2022-10-26T03:19:02;9.50;99.90
62339;DHT22;48368;53.406;6.214;2022-10-26T03:21:28;9.50;99.90
62339;DHT22;48368;53.406;6.214;2022-10-26T03:23:54;9.50;99.90
62339;DHT22;48368;53.406;6.214;2022-10-26T03:26:19;9.60;99.90
62339;DHT22;48368;53.406;6.214;2022-10-26T03:28:45;9.50;99.90
62339;DHT22;48368;53.406;6.214;2022-10-26T03:31:11;9.50;99.90
62339;DHT22;48368;53.406;6.214;2022-10-26T03:33:36;9.50;99.90
62339;DHT22;48368;53.406;6.214;2022-10-26T03:36:02;9.50;99.90
62339;DHT22;48368;53.406;6.214;2022-10-26T03:38:28;9.50;99.90
62339;DHT22;48368;53.406;6.214;2022-10-26T03:40:53;9.50;99.90
62339;DHT22;48368;53.406;6.214;2022-10-26T03:43:19;9.50;99.90
62339;DHT22;48368;53.406;6.214;2022-10-26T03:45:45;9.40;99.90
62339;DHT22;48368;53.406;6.214;2022-10-26T03:48:10;9.50;99.90
62339;DHT22;48368;53.406;6.214;2022-10-26T03:50:36;9.50;99.90
62339;DHT22;48368;53.406;6.214;2022-10-26T03:53:02;9.50;99.90
62339;DHT22;48368;53.406;6.214;2022-10-26T03:55:27;9.50;99.90
62339;DHT22;48368;53.406;6.214;2022-10-26T03:57:53;9.50;99.90
62339;DHT22;48368;53.406;6.214;2022-10-26T04:00:18;9.40;99.90
62339;DHT22;48368;53.406;6.214;2022-10-26T04:02:51;9.40;99.90
62339;DHT22;48368;53.406;6.214;2022-10-26T04:05:18;9.40;99.90
62339;DHT22;48368;53.406;6.214;2022-10-26T04:07:43;9.50;99.90
62339;DHT22;48368;53.406;6.214;2022-10-26T04:10:09;9.40;99.90
62339;DHT22;48368;53.406;6.214;2022-10-26T04:12:38;9.40;99.90
62339;DHT22;48368;53.406;6.214;2022-10-26T04:15:04;9.40;99.90
62339;DHT22;48368;53.406;6.214;2022-10-26T04:17:31;9.40;99.90
62339;DHT22;48368;53.406;6.214;2022-10-26T04:19:57;9.40;99.90
62339;DHT22;48368;53.406;6.214;2022-10-26T04:22:22;9.50;99.90
62339;DHT22;48368;53.406;6.214;2022-10-26T04:24:48;9.40;99.90
62339;DHT22;48368;53.406;6.214;2022-10-26T04:27:14;9.40;99.90
62339;DHT22;48368;53.406;6.214;2022-10-26T04:29:40;9.40;99.90
62339;DHT22;48368;53.406;6.214;2022-10-26T04:32:05;9.50;99.90
62339;DHT22;48368;53.406;6.214;2022-10-26T04:34:32;9.50;99.90
62339;DHT22;48368;53.406;6.214;2022-10-26T04:36:57;9.50;99.90
62339;DHT22;48368;53.406;6.214;2022-10-26T04:39:23;9.50;99.90
62339;DHT22;48368;53.406;6.214;2022-10-26T04:41:50;9.50;99.90
62339;DHT22;48368;53.406;6.214;2022-10-26T04:44:15;9.60;99.90
62339;DHT22;48368;53.406;6.214;2022-10-26T04:46:41;9.60;99.90
62339;DHT22;48368;53.406;6.214;2022-10-26T04:49:06;9.60;99.90
62339;DHT22;48368;53.406;6.214;2022-10-26T04:51:32;9.60;99.90
62339;DHT22;48368;53.406;6.214;2022-10-26T04:53:57;9.60;99.90
62339;DHT22;48368;53.406;6.214;2022-10-26T04:56:23;9.60;99.90
62339;DHT22;48368;53.406;6.214;2022-10-26T04:58:51;9.70;99.90
62339;DHT22;48368;53.406;6.214;2022-10-26T05:01:17;9.70;99.90
62339;DHT22;48368;53.406;6.214;2022-10-26T05:03:43;9.70;99.90
62339;DHT22;48368;53.406;6.214;2022-10-26T05:06:08;9.70;99.90
62339;DHT22;48368;53.406;6.214;2022-10-26T05:08:34;9.70;99.90
62339;DHT22;48368;53.406;6.214;2022-10-26T05:10:59;9.70;99.90
62339;DHT22;48368;53.406;6.214;2022-10-26T05:13:25;9.70;99.90
62339;DHT22;48368;53.406;6.214;2022-10-26T05:15:54;9.70;99.90
62339;DHT22;48368;53.406;6.214;2022-10-26T05:18:19;9.80;99.90
62339;DHT22;48368;53.406;6.214;2022-10-26T05:20:45;9.70;99.90
62339;DHT22;48368;53.406;6.214;2022-10-26T05:23:11;9.80;99.90
62339;DHT22;48368;53.406;6.214;2022-10-26T05:25:37;9.80;99.90
62339;DHT22;48368;53.406;6.214;2022-10-26T05:28:05;9.80;99.90
62339;DHT22;48368;53.406;6.214;2022-10-26T05:30:32;9.80;99.90
62339;DHT22;48368;53.406;6.214;2022-10-26T05:32:59;9.80;99.90
62339;DHT22;48368;53.406;6.214;2022-10-26T05:35:27;9.80;99.90
62339;DHT22;48368;53.406;6.214;2022-10-26T05:37:53;9.80;99.90
62339;DHT22;48368;53.406;6.214;2022-10-26T05:40:47;9.80;99.90
62339;DHT22;48368;53.406;6.214;2022-10-26T05:43:25;9.80;99.90
62339;DHT22;48368;53.406;6.214;2022-10-26T05:45:52;9.80;99.90
62339;DHT22;48368;53.406;6.214;2022-10-26T05:48:18;9.90;99.90
62339;DHT22;48368;53.406;6.214;2022-10-26T05:50:44;9.90;99.90
62339;DHT22;48368;53.406;6.214;2022-10-26T05:53:10;9.90;99.90
62339;DHT22;48368;53.406;6.214;2022-10-26T05:55:36;10.00;99.90
62339;DHT22;48368;53.406;6.214;2022-10-26T05:58:02;10.00;99.90
62339;DHT22;48368;53.406;6.214;2022-10-26T06:00:28;10.00;99.90
62339;DHT22;48368;53.406;6.214;2022-10-26T06:05:56;10.00;99.90
62339;DHT22;48368;53.406;6.214;2022-10-26T06:08:25;10.00;99.90
62339;DHT22;48368;53.406;6.214;2022-10-26T06:10:52;10.10;99.90
62339;DHT22;48368;53.406;6.214;2022-10-26T06:13:18;10.10;99.90
62339;DHT22;48368;53.406;6.214;2022-10-26T06:24:55;10.20;99.90
62339;DHT22;48368;53.406;6.214;2022-10-26T06:27:43;10.30;99.90
62339;DHT22;48368;53.406;6.214;2022-10-26T06:30:10;10.30;99.90
62339;DHT22;48368;53.406;6.214;2022-10-26T06:32:44;10.30;99.90
62339;DHT22;48368;53.406;6.214;2022-10-26T06:35:14;10.30;99.90
62339;DHT22;48368;53.406;6.214;2022-10-26T06:37:44;10.40;99.90
62339;DHT22;48368;53.406;6.214;2022-10-26T06:40:12;10.40;99.90
62339;DHT22;48368;53.406;6.214;2022-10-26T06:42:39;10.40;99.90
62339;DHT22;48368;53.406;6.214;2022-10-26T06:45:13;10.40;99.90
62339;DHT22;48368;53.406;6.214;2022-10-26T06:48:01;10.40;99.90
62339;DHT22;48368;53.406;6.214;2022-10-26T06:50:39;10.40;99.90
62339;DHT22;48368;53.406;6.214;2022-10-26T06:53:26;10.50;99.90
62339;DHT22;48368;53.406;6.214;2022-10-26T06:55:58;10.50;99.90
62339;DHT22;48368;53.406;6.214;2022-10-26T06:58:28;10.50;99.90
62339;DHT22;48368;53.406;6.214;2022-10-26T07:00:55;10.50;99.90
62339;DHT22;48368;53.406;6.214;2022-10-26T07:03:24;10.50;99.90
62339;DHT22;48368;53.406;6.214;2022-10-26T07:05:50;10.50;99.90
62339;DHT22;48368;53.406;6.214;2022-10-26T07:08:15;10.60;99.90
62339;DHT22;48368;53.406;6.214;2022-10-26T07:10:41;10.70;99.90
62339;DHT22;48368;53.406;6.214;2022-10-26T07:13:13;10.70;99.90
62339;DHT22;48368;53.406;6.214;2022-10-26T07:15:39;10.70;99.90
62339;DHT22;48368;53.406;6.214;2022-10-26T07:18:06;10.70;99.90
62339;DHT22;48368;53.406;6.214;2022-10-26T07:20:40;10.80;99.90
62339;DHT22;48368;53.406;6.214;2022-10-26T07:23:06;10.80;99.90
62339;DHT22;48368;53.406;6.214;2022-10-26T07:25:34;10.80;99.90
62339;DHT22;48368;53.406;6.214;2022-10-26T07:28:03;10.80;99.90
62339;DHT22;48368;53.406;6.214;2022-10-26T07:30:32;10.90;99.90
62339;DHT22;48368;53.406;6.214;2022-10-26T07:33:02;10.90;99.90
62339;DHT22;48368;53.406;6.214;2022-10-26T07:35:31;11.00;99.90
62339;DHT22;48368;53.406;6.214;2022-10-26T07:37:57;11.00;99.90
62339;DHT22;48368;53.406;6.214;2022-10-26T07:40:23;11.00;99.90
62339;DHT22;48368;53.406;6.214;2022-10-26T07:42:49;11.00;99.90
62339;DHT22;48368;53.406;6.214;2022-10-26T07:45:15;11.10;99.90
62339;DHT22;48368;53.406;6.214;2022-10-26T07:47:40;11.10;99.90
62339;DHT22;48368;53.406;6.214;2022-10-26T07:50:06;11.20;99.90
62339;DHT22;48368;53.406;6.214;2022-10-26T07:52:42;11.20;99.90
62339;DHT22;48368;53.406;6.214;2022-10-26T07:55:08;11.20;99.90
62339;DHT22;48368;53.406;6.214;2022-10-26T07:57:35;11.30;99.90
62339;DHT22;48368;53.406;6.214;2022-10-26T08:00:02;11.30;99.90
62339;DHT22;48368;53.406;6.214;2022-10-26T08:02:28;11.40;99.90
62339;DHT22;48368;53.406;6.214;2022-10-26T08:04:56;11.40;99.90
62339;DHT22;48368;53.406;6.214;2022-10-26T08:07:22;11.50;99.90
62339;DHT22;48368;53.406;6.214;2022-10-26T08:09:48;11.40;99.90
62339;DHT22;48368;53.406;6.214;2022-10-26T08:12:13;11.50;99.90
62339;DHT22;48368;53.406;6.214;2022-10-26T08:14:41;11.50;99.90
62339;DHT22;48368;53.406;6.214;2022-10-26T08:17:07;11.60;99.90
62339;DHT22;48368;53.406;6.214;2022-10-26T08:19:33;11.60;99.90
62339;DHT22;48368;53.406;6.214;2022-10-26T08:21:58;11.60;99.90
62339;DHT22;48368;53.406;6.214;2022-10-26T08:24:24;11.70;99.90
62339;DHT22;48368;53.406;6.214;2022-10-26T08:26:50;11.80;99.90
62339;DHT22;48368;53.406;6.214;2022-10-26T08:29:15;12.00;99.90
62339;DHT22;48368;53.406;6.214;2022-10-26T08:31:41;12.00;99.90
62339;DHT22;48368;53.406;6.214;2022-10-26T08:34:07;12.10;99.90
62339;DHT22;48368;53.406;6.214;2022-10-26T08:36:32;12.10;99.90
62339;DHT22;48368;53.406;6.214;2022-10-26T08:38:58;12.20;99.90
62339;DHT22;48368;53.406;6.214;2022-10-26T08:41:41;12.30;99.90
62339;DHT22;48368;53.406;6.214;2022-10-26T08:44:19;12.30;99.90
62339;DHT22;48368;53.406;6.214;2022-10-26T08:46:50;12.40;99.90
62339;DHT22;48368;53.406;6.214;2022-10-26T08:49:29;12.50;99.90
62339;DHT22;48368;53.406;6.214;2022-10-26T08:51:59;12.60;99.90
62339;DHT22;48368;53.406;6.214;2022-10-26T08:54:38;12.60;99.90
62339;DHT22;48368;53.406;6.214;2022-10-26T08:57:20;12.70;99.90
62339;DHT22;48368;53.406;6.214;2022-10-26T08:59:52;12.70;99.90
62339;DHT22;48368;53.406;6.214;2022-10-26T09:02:25;12.70;99.90
62339;DHT22;48368;53.406;6.214;2022-10-26T09:04:52;12.80;99.90
62339;DHT22;48368;53.406;6.214;2022-10-26T09:11:01;13.00;99.90
62339;DHT22;48368;53.406;6.214;2022-10-26T09:16:36;13.10;99.90
62339;DHT22;48368;53.406;6.214;2022-10-26T09:22:09;13.40;99.90
62339;DHT22;48368;53.406;6.214;2022-10-26T09:24:56;13.50;99.90
62339;DHT22;48368;53.406;6.214;2022-10-26T09:28:12;13.60;99.90
62339;DHT22;48368;53.406;6.214;2022-10-26T09:30:36;13.70;99.90
62339;DHT22;48368;53.406;6.214;2022-10-26T09:33:15;13.80;99.90
62339;DHT22;48368;53.406;6.214;2022-10-26T09:35:58;13.90;99.90
62339;DHT22;48368;53.406;6.214;2022-10-26T09:38:28;14.00;99.90
62339;DHT22;48368;53.406;6.214;2022-10-26T09:40:58;14.10;99.90
62339;DHT22;48368;53.406;6.214;2022-10-26T09:45:54;14.30;99.90
62339;DHT22;48368;53.406;6.214;2022-10-26T09:48:28;14.40;99.90
62339;DHT22;48368;53.406;6.214;2022-10-26T09:50:55;14.50;99.90
62339;DHT22;48368;53.406;6.214;2022-10-26T09:53:22;14.60;99.90
62339;DHT22;48368;53.406;6.214;2022-10-26T09:55:51;14.80;99.90
62339;DHT22;48368;53.406;6.214;2022-10-26T09:58:26;14.90;99.90
62339;DHT22;48368;53.406;6.214;2022-10-26T10:00:53;15.00;99.90
62339;DHT22;48368;53.406;6.214;2022-10-26T10:03:27;15.00;99.90
62339;DHT22;48368;53.406;6.214;2022-10-26T10:05:53;15.10;99.90
62339;DHT22;48368;53.406;6.214;2022-10-26T10:08:39;15.10;99.90
62339;DHT22;48368;53.406;6.214;2022-10-26T10:13:34;15.30;99.90
62339;DHT22;48368;53.406;6.214;2022-10-26T10:16:13;15.40;99.90
62339;DHT22;48368;53.406;6.214;2022-10-26T10:18:55;15.50;99.90
62339;DHT22;48368;53.406;6.214;2022-10-26T10:21:38;15.60;99.90
62339;DHT22;48368;53.406;6.214;2022-10-26T10:24:30;15.70;99.90
62339;DHT22;48368;53.406;6.214;2022-10-26T10:27:02;15.80;99.90
62339;DHT22;48368;53.406;6.214;2022-10-26T10:29:33;15.80;99.90
62339;DHT22;48368;53.406;6.214;2022-10-26T10:32:04;15.80;99.90
62339;DHT22;48368;53.406;6.214;2022-10-26T10:34:31;15.80;99.90
62339;DHT22;48368;53.406;6.214;2022-10-26T10:36:58;15.60;99.90
62339;DHT22;48368;53.406;6.214;2022-10-26T10:39:40;15.70;99.90
62339;DHT22;48368;53.406;6.214;2022-10-26T10:42:18;15.60;99.90
62339;DHT22;48368;53.406;6.214;2022-10-26T10:44:46;15.70;99.90
62339;DHT22;48368;53.406;6.214;2022-10-26T10:47:56;15.70;99.90
62339;DHT22;48368;53.406;6.214;2022-10-26T10:50:22;15.70;99.90
62339;DHT22;48368;53.406;6.214;2022-10-26T10:52:48;15.70;99.90
62339;DHT22;48368;53.406;6.214;2022-10-26T11:00:53;15.90;99.90
62339;DHT22;48368;53.406;6.214;2022-10-26T11:06:15;16.00;99.90
62339;DHT22;48368;53.406;6.214;2022-10-26T11:11:37;16.20;99.90
62339;DHT22;48368;53.406;6.214;2022-10-26T11:14:09;16.20;99.90
62339;DHT22;48368;53.406;6.214;2022-10-26T11:16:46;16.20;99.90
62339;DHT22;48368;53.406;6.214;2022-10-26T11:19:28;16.20;99.90
62339;DHT22;48368;53.406;6.214;2022-10-26T11:21:56;16.20;99.90
62339;DHT22;48368;53.406;6.214;2022-10-26T11:24:28;16.20;99.90
62339;DHT22;48368;53.406;6.214;2022-10-26T11:27:15;16.30;99.90
62339;DHT22;48368;53.406;6.214;2022-10-26T11:30:08;16.30;99.90
62339;DHT22;48368;53.406;6.214;2022-10-26T11:32:55;16.40;99.90
62339;DHT22;48368;53.406;6.214;2022-10-26T11:35:36;16.50;99.90
62339;DHT22;48368;53.406;6.214;2022-10-26T11:43:17;16.90;99.90
62339;DHT22;48368;53.406;6.214;2022-10-26T11:46:04;16.90;99.90
62339;DHT22;48368;53.406;6.214;2022-10-26T11:48:59;17.00;99.90
62339;DHT22;48368;53.406;6.214;2022-10-26T11:51:55;17.10;99.90
62339;DHT22;48368;53.406;6.214;2022-10-26T11:54:42;17.20;99.90
62339;DHT22;48368;53.406;6.214;2022-10-26T11:57:11;17.30;99.90
62339;DHT22;48368;53.406;6.214;2022-10-26T11:59:42;17.30;99.90
62339;DHT22;48368;53.406;6.214;2022-10-26T12:05:00;17.40;99.90
62339;DHT22;48368;53.406;6.214;2022-10-26T12:07:32;17.50;99.90
62339;DHT22;48368;53.406;6.214;2022-10-26T12:09:59;17.50;99.90
62339;DHT22;48368;53.406;6.214;2022-10-26T12:12:32;17.40;99.90
62339;DHT22;48368;53.406;6.214;2022-10-26T12:15:06;17.40;99.90
62339;DHT22;48368;53.406;6.214;2022-10-26T12:21:00;17.50;99.90
62339;DHT22;48368;53.406;6.214;2022-10-26T12:23:35;17.50;99.90
62339;DHT22;48368;53.406;6.214;2022-10-26T12:28:46;17.40;99.90
62339;DHT22;48368;53.406;6.214;2022-10-26T12:34:13;17.40;99.90
62339;DHT22;48368;53.406;6.214;2022-10-26T12:55:20;17.30;99.90
62339;DHT22;48368;53.406;6.214;2022-10-26T13:00:20;17.30;99.90
62339;DHT22;48368;53.406;6.214;2022-10-26T13:06:05;17.30;99.90
62339;DHT22;48368;53.406;6.214;2022-10-26T13:08:22;17.30;99.90
62339;DHT22;48368;53.406;6.214;2022-10-26T13:12:02;17.20;99.90
62339;DHT22;48368;53.406;6.214;2022-10-26T13:14:02;17.20;99.90
62339;DHT22;48368;53.406;6.214;2022-10-26T13:16:30;17.30;99.90
62339;DHT22;48368;53.406;6.214;2022-10-26T13:18:57;17.30;99.90
62339;DHT22;48368;53.406;6.214;2022-10-26T13:21:24;17.30;99.90
62339;DHT22;48368;53.406;6.214;2022-10-26T13:26:22;17.30;99.90
62339;DHT22;48368;53.406;6.214;2022-10-26T13:28:59;17.30;99.90
62339;DHT22;48368;53.406;6.214;2022-10-26T13:34:02;17.20;99.90
62339;DHT22;48368;53.406;6.214;2022-10-26T13:36:33;17.30;99.90
62339;DHT22;48368;53.406;6.214;2022-10-26T13:39:12;17.30;99.90
62339;DHT22;48368;53.406;6.214;2022-10-26T13:41:42;17.20;99.90
62339;DHT22;48368;53.406;6.214;2022-10-26T13:46:57;17.30;99.90
62339;DHT22;48368;53.406;6.214;2022-10-26T13:49:28;17.30;99.90
62339;DHT22;48368;53.406;6.214;2022-10-26T13:51:55;17.30;99.90
62339;DHT22;48368;53.406;6.214;2022-10-26T13:54:31;17.30;99.90
62339;DHT22;48368;53.406;6.214;2022-10-26T13:57:12;17.30;99.90
62339;DHT22;48368;53.406;6.214;2022-10-26T13:59:43;17.30;99.90
62339;DHT22;48368;53.406;6.214;2022-10-26T14:02:27;17.20;99.90
62339;DHT22;48368;53.406;6.214;2022-10-26T14:05:01;17.10;99.90
62339;DHT22;48368;53.406;6.214;2022-10-26T14:10:03;17.10;99.90
62339;DHT22;48368;53.406;6.214;2022-10-26T14:12:29;17.10;99.90
62339;DHT22;48368;53.406;6.214;2022-10-26T14:15:08;17.10;99.90
62339;DHT22;48368;53.406;6.214;2022-10-26T14:17:34;17.20;99.90
62339;DHT22;48368;53.406;6.214;2022-10-26T14:20:01;17.20;99.90
62339;DHT22;48368;53.406;6.214;2022-10-26T14:22:28;17.20;99.90
62339;DHT22;48368;53.406;6.214;2022-10-26T14:24:58;17.20;99.90
62339;DHT22;48368;53.406;6.214;2022-10-26T14:27:38;17.10;99.90
62339;DHT22;48368;53.406;6.214;2022-10-26T14:30:30;17.10;99.90
62339;DHT22;48368;53.406;6.214;2022-10-26T14:32:57;17.10;99.90
62339;DHT22;48368;53.406;6.214;2022-10-26T14:35:29;17.10;99.90
62339;DHT22;48368;53.406;6.214;2022-10-26T14:37:59;17.10;99.90
62339;DHT22;48368;53.406;6.214;2022-10-26T14:40:29;17.00;99.90
62339;DHT22;48368;53.406;6.214;2022-10-26T14:42:58;17.00;99.90
62339;DHT22;48368;53.406;6.214;2022-10-26T14:45:31;16.90;99.90
62339;DHT22;48368;53.406;6.214;2022-10-26T14:47:59;16.90;99.90
62339;DHT22;48368;53.406;6.214;2022-10-26T14:50:26;16.80;99.90
62339;DHT22;48368;53.406;6.214;2022-10-26T14:53:15;16.90;99.90
62339;DHT22;48368;53.406;6.214;2022-10-26T14:55:51;16.80;99.90
62339;DHT22;48368;53.406;6.214;2022-10-26T14:58:26;16.80;99.90
62339;DHT22;48368;53.406;6.214;2022-10-26T15:04:01;16.70;99.90
62339;DHT22;48368;53.406;6.214;2022-10-26T15:08:57;16.60;99.90
62339;DHT22;48368;53.406;6.214;2022-10-26T15:11:25;16.60;99.90
62339;DHT22;48368;53.406;6.214;2022-10-26T15:13:51;16.50;99.90
62339;DHT22;48368;53.406;6.214;2022-10-26T15:16:23;16.50;99.90
62339;DHT22;48368;53.406;6.214;2022-10-26T15:19:10;16.50;99.90
62339;DHT22;48368;53.406;6.214;2022-10-26T15:21:45;16.50;99.90
62339;DHT22;48368;53.406;6.214;2022-10-26T15:24:33;16.50;99.90
62339;DHT22;48368;53.406;6.214;2022-10-26T15:27:00;16.40;99.90
62339;DHT22;48368;53.406;6.214;2022-10-26T15:32:02;16.40;99.90
62339;DHT22;48368;53.406;6.214;2022-10-26T15:34:28;16.40;99.90
62339;DHT22;48368;53.406;6.214;2022-10-26T15:36:53;16.30;99.90
62339;DHT22;48368;53.406;6.214;2022-10-26T15:39:19;16.30;99.90
62339;DHT22;48368;53.406;6.214;2022-10-26T15:41:46;16.30;99.90
62339;DHT22;48368;53.406;6.214;2022-10-26T15:44:15;16.30;99.90
62339;DHT22;48368;53.406;6.214;2022-10-26T15:46:42;16.20;99.90
62339;DHT22;48368;53.406;6.214;2022-10-26T15:49:17;16.30;99.90
62339;DHT22;48368;53.406;6.214;2022-10-26T15:51:44;16.20;99.90
62339;DHT22;48368;53.406;6.214;2022-10-26T15:54:11;16.20;99.90
62339;DHT22;48368;53.406;6.214;2022-10-26T15:56:36;16.20;99.90
62339;DHT22;48368;53.406;6.214;2022-10-26T15:59:15;16.10;99.90
62339;DHT22;48368;53.406;6.214;2022-10-26T16:01:41;16.10;99.90
62339;DHT22;48368;53.406;6.214;2022-10-26T16:04:08;16.00;99.90
62339;DHT22;48368;53.406;6.214;2022-10-26T16:06:35;16.00;99.90
62339;DHT22;48368;53.406;6.214;2022-10-26T16:09:04;15.90;99.90
62339;DHT22;48368;53.406;6.214;2022-10-26T16:11:31;15.90;99.90
62339;DHT22;48368;53.406;6.214;2022-10-26T16:13:59;15.90;99.90
62339;DHT22;48368;53.406;6.214;2022-10-26T16:16:25;15.80;99.90
62339;DHT22;48368;53.406;6.214;2022-10-26T16:18:52;15.80;99.90
62339;DHT22;48368;53.406;6.214;2022-10-26T16:21:20;15.80;99.90
62339;DHT22;48368;53.406;6.214;2022-10-26T16:23:54;15.80;99.90
62339;DHT22;48368;53.406;6.214;2022-10-26T16:26:21;15.60;99.90
62339;DHT22;48368;53.406;6.214;2022-10-26T16:28:48;15.70;99.90
62339;DHT22;48368;53.406;6.214;2022-10-26T16:31:15;15.70;99.90
62339;DHT22;48368;53.406;6.214;2022-10-26T16:33:42;15.60;99.90
62339;DHT22;48368;53.406;6.214;2022-10-26T16:36:11;15.60;99.90
62339;DHT22;48368;53.406;6.214;2022-10-26T16:38:37;15.60;99.90
62339;DHT22;48368;53.406;6.214;2022-10-26T16:41:09;15.60;99.90
62339;DHT22;48368;53.406;6.214;2022-10-26T16:43:37;15.70;99.90
62339;DHT22;48368;53.406;6.214;2022-10-26T16:46:22;15.70;99.90
62339;DHT22;48368;53.406;6.214;2022-10-26T16:48:48;15.60;99.90
62339;DHT22;48368;53.406;6.214;2022-10-26T16:51:19;15.60;99.90
62339;DHT22;48368;53.406;6.214;2022-10-26T16:53:47;15.60;99.90
62339;DHT22;48368;53.406;6.214;2022-10-26T16:56:16;15.60;99.90
62339;DHT22;48368;53.406;6.214;2022-10-26T16:58:42;15.60;99.90
62339;DHT22;48368;53.406;6.214;2022-10-26T17:01:08;15.60;99.90
62339;DHT22;48368;53.406;6.214;2022-10-26T17:03:34;15.60;99.90
62339;DHT22;48368;53.406;6.214;2022-10-26T17:06:02;15.60;99.90
62339;DHT22;48368;53.406;6.214;2022-10-26T17:08:29;15.50;99.90
62339;DHT22;48368;53.406;6.214;2022-10-26T17:11:02;15.40;99.90
62339;DHT22;48368;53.406;6.214;2022-10-26T17:13:28;15.50;99.90
62339;DHT22;48368;53.406;6.214;2022-10-26T17:15:53;15.40;99.90
62339;DHT22;48368;53.406;6.214;2022-10-26T17:18:19;15.30;99.90
62339;DHT22;48368;53.406;6.214;2022-10-26T17:20:48;15.40;99.90
62339;DHT22;48368;53.406;6.214;2022-10-26T17:23:15;15.40;99.90
62339;DHT22;48368;53.406;6.214;2022-10-26T17:25:41;15.40;99.90
62339;DHT22;48368;53.406;6.214;2022-10-26T17:28:07;15.30;99.90
62339;DHT22;48368;53.406;6.214;2022-10-26T17:30:32;15.30;99.90
62339;DHT22;48368;53.406;6.214;2022-10-26T17:32:58;15.30;99.90
62339;DHT22;48368;53.406;6.214;2022-10-26T17:35:24;15.30;99.90
62339;DHT22;48368;53.406;6.214;2022-10-26T17:37:49;15.20;99.90
62339;DHT22;48368;53.406;6.214;2022-10-26T17:40:15;15.20;99.90
62339;DHT22;48368;53.406;6.214;2022-10-26T17:42:41;15.20;99.90
62339;DHT22;48368;53.406;6.214;2022-10-26T17:45:07;15.20;99.90
62339;DHT22;48368;53.406;6.214;2022-10-26T17:47:34;15.10;99.90
62339;DHT22;48368;53.406;6.214;2022-10-26T17:50:00;15.10;99.90
62339;DHT22;48368;53.406;6.214;2022-10-26T17:52:27;15.10;99.90
62339;DHT22;48368;53.406;6.214;2022-10-26T17:54:53;15.10;99.90